Time;durP1;ratioP1;P1;durP2;ratioP2;P2;SDS_P1;SDS_P2;PMS_P1;PMS_P2;Temp;Humidity;BMP_temperature;BMP_pressure;BME280_temperature;BME280_humidity;BME280_pressure;Samples;Min_cycle;Max_cycle;Signal;HPM_P1;HPM_P2
2023/10/28 00:01:12;;;;;;;;;1.00;1.00;;;;;13.96;58.45;98281.16;5068312;28;8963;-75
2023/10/28 00:03:42;;;;;;;;;0.40;0.20;;;;;13.89;58.31;98283.31;5066927;28;8839;-74
2023/10/28 00:06:13;;;;;;;;;0.60;0.60;;;;;13.93;59.04;98294.56;5048516;28;8864;-75
2023/10/28 00:08:43;;;;;;;;;0.00;0.00;;;;;13.97;60.37;98293.44;5063763;28;8841;-76
2023/10/28 00:11:12;;;;;;;;;0.00;0.00;;;;;13.92;59.12;98293.69;5053794;28;8834;-75
2023/10/28 00:13:41;;;;;;;;;1.00;1.00;;;;;13.91;58.45;98293.78;5069559;28;8854;-75
2023/10/28 00:16:10;;;;;;;;;1.00;1.00;;;;;13.89;59.47;98299.16;5068198;28;8874;-75
2023/10/28 00:18:39;;;;;;;;;0.00;0.00;;;;;13.93;59.00;98300.69;5069484;28;8842;-74
2023/10/28 00:21:09;;;;;;;;;0.00;0.00;;;;;13.91;58.65;98297.28;5068487;28;8846;-75
2023/10/28 00:23:40;;;;;;;;;0.00;0.00;;;;;13.92;58.27;98304.25;5035797;28;8850;-76
2023/10/28 00:26:10;;;;;;;;;0.00;0.00;;;;;13.89;57.16;98302.63;5069534;28;8888;-77
2023/10/28 00:28:40;;;;;;;;;0.00;0.00;;;;;13.87;57.46;98303.66;5069604;28;8842;-75
2023/10/28 00:31:09;;;;;;;;;0.80;0.80;;;;;13.83;56.90;98313.56;5050836;28;8984;-76
2023/10/28 00:33:38;;;;;;;;;1.00;1.00;;;;;13.87;57.77;98308.94;5069103;28;9136;-76
2023/10/28 00:36:09;;;;;;;;;0.00;0.00;;;;;13.72;55.97;98318.53;5066927;28;8826;-76
2023/10/28 00:38:39;;;;;;;;;0.00;0.00;;;;;13.73;57.05;98314.94;5069252;28;8874;-77
2023/10/28 00:41:08;;;;;;;;;0.20;0.20;;;;;13.73;56.99;98301.72;5034732;28;8870;-75
2023/10/28 00:43:38;;;;;;;;;0.20;0.20;;;;;13.79;56.67;98303.19;5035523;28;8841;-76
2023/10/28 00:46:08;;;;;;;;;0.00;0.00;;;;;13.81;57.33;98302.22;5078738;28;8839;-74
2023/10/28 00:48:37;;;;;;;;;1.60;0.00;;;;;13.81;56.80;98303.97;5068813;28;9650;-74
2023/10/28 00:51:06;;;;;;;;;0.40;0.40;;;;;13.80;56.48;98299.63;5056415;28;8864;-74
2023/10/28 00:53:36;;;;;;;;;0.00;0.00;;;;;13.80;56.89;98302.25;5064433;28;8869;-74
2023/10/28 00:56:07;;;;;;;;;0.00;0.00;;;;;13.81;56.48;98296.06;5048662;28;8889;-75
2023/10/28 00:58:37;;;;;;;;;0.00;0.00;;;;;13.82;55.64;98293.34;5082669;28;8854;-75
2023/10/28 01:01:10;;;;;;;;;0.00;0.00;;;;;13.87;56.59;98293.94;5067677;28;9035;-75
2023/10/28 01:03:40;;;;;;;;;0.20;0.20;;;;;13.86;56.44;98299.31;5067661;28;8874;-75
2023/10/28 01:06:10;;;;;;;;;0.20;0.20;;;;;13.89;56.75;98292.06;5061173;28;8872;-75
2023/10/28 01:08:40;;;;;;;;;1.00;0.20;;;;;13.91;56.15;98281.44;5013578;28;8945;-76
2023/10/28 01:11:11;;;;;;;;;0.00;0.00;;;;;13.91;56.24;98275.31;5061978;28;8854;-76
2023/10/28 01:13:40;;;;;;;;;1.00;1.00;;;;;13.88;55.80;98293.03;5033855;28;8901;-74
2023/10/28 01:16:11;;;;;;;;;1.00;1.00;;;;;13.94;56.35;98297.13;5067186;28;8878;-75
2023/10/28 01:18:40;;;;;;;;;0.20;0.20;;;;;13.94;55.98;98294.47;5068514;28;8957;-76
2023/10/28 01:21:13;;;;;;;;;2.00;1.00;;;;;13.96;55.96;98287.31;5067211;28;8870;-76
2023/10/28 01:23:42;;;;;;;;;0.00;0.00;;;;;13.85;55.78;98284.41;5067124;28;8907;-75
2023/10/28 01:26:12;;;;;;;;;0.00;0.00;;;;;13.89;56.35;98283.31;5068396;28;8838;-77
2023/10/28 01:28:41;;;;;;;;;0.00;0.00;;;;;13.91;56.03;98280.59;5068210;28;8861;-74
2023/10/28 01:31:10;;;;;;;;;1.00;1.00;;;;;13.89;56.24;98275.38;5084414;28;8886;-74
2023/10/28 01:33:39;;;;;;;;;0.00;0.00;;;;;13.90;56.15;98271.78;5067020;28;8876;-74
2023/10/28 01:36:08;;;;;;;;;0.00;0.00;;;;;13.81;55.77;98280.22;5067579;28;8865;-75
2023/10/28 01:38:38;;;;;;;;;1.00;1.00;;;;;13.85;55.54;98272.06;5067752;28;8838;-74
2023/10/28 01:41:07;;;;;;;;;0.00;0.00;;;;;13.80;56.02;98268.81;5069522;28;8988;-75
2023/10/28 01:43:36;;;;;;;;;0.60;0.60;;;;;13.75;54.86;98272.59;5082372;28;8854;-74
2023/10/28 01:46:05;;;;;;;;;0.00;0.00;;;;;13.85;55.78;98276.50;5067052;28;8854;-75
2023/10/28 01:48:34;;;;;;;;;0.00;0.00;;;;;13.83;55.38;98276.56;5066642;28;8877;-75
2023/10/28 01:51:02;;;;;;;;;1.00;0.00;;;;;13.81;56.00;98275.81;5066927;28;8858;-75
2023/10/28 01:53:31;;;;;;;;;0.00;0.00;;;;;13.78;54.93;98265.34;5061668;28;8864;-74
2023/10/28 01:56:01;;;;;;;;;0.00;0.00;;;;;13.81;55.58;98275.81;5063356;28;8906;-74
2023/10/28 01:58:32;;;;;;;;;1.00;1.00;;;;;13.77;56.21;98276.00;5063174;28;8872;-76
2023/10/28 02:01:02;;;;;;;;;0.00;0.00;;;;;13.81;56.42;98272.28;5029082;28;8856;-74
2023/10/28 02:03:32;;;;;;;;;0.60;0.60;;;;;13.79;55.80;98272.38;5046641;28;8841;-74
2023/10/28 02:06:01;;;;;;;;;0.00;0.00;;;;;13.78;55.09;98261.88;5013252;28;8941;-76
2023/10/28 02:08:30;;;;;;;;;1.00;1.00;;;;;13.73;54.88;98258.63;5047237;28;8893;-77
2023/10/28 02:11:01;;;;;;;;;1.00;1.00;;;;;13.69;55.53;98253.53;5050920;28;8878;-75
2023/10/28 02:13:30;;;;;;;;;0.00;0.00;;;;;13.62;55.15;98256.56;5066397;28;8911;-76
2023/10/28 02:16:00;;;;;;;;;1.00;1.00;;;;;13.63;55.21;98253.00;5066521;28;8885;-75
2023/10/28 02:18:29;;;;;;;;;0.00;0.00;;;;;13.61;54.83;98253.06;5067796;28;8869;-76
2023/10/28 02:20:58;;;;;;;;;0.00;0.00;;;;;13.61;55.17;98253.06;5066590;28;8873;-75
2023/10/28 02:23:27;;;;;;;;;0.40;0.00;;;;;13.58;54.51;98253.25;5058152;28;9078;-76
2023/10/28 02:25:56;;;;;;;;;0.60;0.00;;;;;13.57;54.00;98250.69;5017057;28;8870;-75
2023/10/28 02:28:27;;;;;;;;;0.60;0.00;;;;;13.35;53.02;98253.63;5053117;28;8954;-76
2023/10/28 02:30:56;;;;;;;;;0.00;0.00;;;;;13.47;53.71;98250.34;5052477;28;8837;-74
2023/10/28 02:33:26;;;;;;;;;0.00;0.00;;;;;13.51;54.27;98247.44;5051531;28;8849;-76
2023/10/28 02:35:55;;;;;;;;;0.00;0.00;;;;;13.56;52.88;98248.97;5031302;28;8835;-75
2023/10/28 02:38:24;;;;;;;;;0.00;0.00;;;;;13.61;53.64;98253.06;5063502;28;8975;-75
2023/10/28 02:40:53;;;;;;;;;0.60;0.60;;;;;13.66;53.97;98260.75;5066800;28;8879;-75
2023/10/28 02:43:22;;;;;;;;;0.00;0.00;;;;;13.69;53.60;98260.56;5066661;28;8905;-76
2023/10/28 02:45:53;;;;;;;;;1.00;1.00;;;;;13.59;54.06;98259.38;5051381;28;8879;-75
2023/10/28 02:48:21;;;;;;;;;0.60;0.60;;;;;13.48;54.18;98257.31;5051457;28;8857;-75
2023/10/28 02:50:50;;;;;;;;;1.00;1.00;;;;;13.53;55.68;98257.09;5057057;28;8874;-75
2023/10/28 02:53:19;;;;;;;;;0.20;0.20;;;;;13.59;54.61;98256.75;5001971;28;8837;-77
2023/10/28 02:55:48;;;;;;;;;0.40;0.40;;;;;13.65;54.90;98254.59;5071334;28;8871;-75
2023/10/28 02:58:17;;;;;;;;;0.00;0.00;;;;;13.63;54.03;98263.56;5053896;28;8866;-74
2023/10/28 03:00:46;;;;;;;;;0.60;0.60;;;;;13.61;53.49;98262.78;5070145;28;8850;-76
2023/10/28 03:03:16;;;;;;;;;0.00;0.00;;;;;13.55;52.81;98269.25;5070855;28;9048;-74
2023/10/28 03:05:45;;;;;;;;;0.80;0.80;;;;;13.55;53.41;98273.69;5070994;28;9604;-75
2023/10/28 03:08:14;;;;;;;;;1.00;1.00;;;;;13.55;52.52;98273.69;5070421;28;8896;-77
2023/10/28 03:10:43;;;;;;;;;0.00;0.00;;;;;13.58;53.35;98271.75;5070847;28;8846;-77
2023/10/28 03:13:11;;;;;;;;;0.00;0.00;;;;;13.59;53.42;98272.59;5039926;28;9016;-77
2023/10/28 03:15:40;;;;;;;;;0.00;0.00;;;;;13.49;53.08;98277.50;5069592;28;8873;-75
2023/10/28 03:18:09;;;;;;;;;0.00;0.00;;;;;13.48;53.70;98267.88;5069411;28;8862;-76
2023/10/28 03:20:39;;;;;;;;;0.60;0.60;;;;;13.42;54.18;98265.56;5070339;28;8846;-78
2023/10/28 03:23:09;;;;;;;;;0.00;0.00;;;;;13.40;53.52;98264.81;5034888;28;8854;-77
2023/10/28 03:25:38;;;;;;;;;1.00;1.00;;;;;13.46;53.37;98273.22;5068501;28;8834;-76
2023/10/28 03:28:08;;;;;;;;;2.80;1.80;;;;;13.30;53.13;98273.19;5018702;28;8877;-75
2023/10/28 03:30:37;;;;;;;;;0.60;0.60;;;;;13.03;53.34;98271.97;5076678;28;8860;-75
2023/10/28 03:33:06;;;;;;;;;7.00;7.00;;;;;13.03;54.62;98264.91;5088855;28;8886;-76
2023/10/28 03:35:35;;;;;;;;;2.40;1.00;;;;;13.14;54.13;98264.38;5070620;28;8846;-76
2023/10/28 03:38:07;;;;;;;;;0.60;0.60;;;;;13.21;53.89;98271.03;5070188;28;8954;-76
2023/10/28 03:40:38;;;;;;;;;0.00;0.00;;;;;12.78;53.24;98277.63;5068439;28;8909;-75
2023/10/28 03:43:07;;;;;;;;;0.00;0.00;;;;;12.99;53.55;98281.00;5051848;28;8858;-76
2023/10/28 03:45:37;;;;;;;;;1.00;1.00;;;;;12.92;52.40;98280.47;5070295;28;8850;-75
2023/10/28 03:48:06;;;;;;;;;0.00;0.00;;;;;13.06;52.50;98277.97;5085530;28;8831;-75
2023/10/28 03:50:35;;;;;;;;;1.00;0.00;;;;;13.18;52.34;98268.53;5052340;28;8858;-75
2023/10/28 03:53:04;;;;;;;;;0.00;0.00;;;;;13.16;51.70;98278.34;5071075;28;9084;-75
2023/10/28 03:55:34;;;;;;;;;0.00;0.00;;;;;13.29;51.28;98270.63;5067207;28;8843;-75
2023/10/28 03:58:03;;;;;;;;;1.00;1.00;;;;;13.18;51.34;98276.47;5070018;28;8839;-76
2023/10/28 04:00:33;;;;;;;;;8.60;8.60;;;;;13.03;51.54;98267.56;5069630;28;8846;-74
2023/10/28 04:03:02;;;;;;;;;1.40;1.00;;;;;13.08;50.95;98268.19;5069460;28;9012;-74
2023/10/28 04:05:31;;;;;;;;;1.00;0.00;;;;;13.18;52.02;98271.19;5069715;28;8857;-75
2023/10/28 04:08:00;;;;;;;;;1.00;0.00;;;;;13.32;51.25;98265.22;5069542;28;8899;-75
2023/10/28 04:10:30;;;;;;;;;0.00;0.00;;;;;13.32;51.05;98265.22;5069017;28;8842;-75
2023/10/28 04:13:00;;;;;;;;;0.00;0.00;;;;;13.43;51.16;98270.78;5072479;28;8859;-77
2023/10/28 04:15:29;;;;;;;;;0.00;0.00;;;;;13.43;51.22;98276.06;5070229;28;9020;-75
2023/10/28 04:17:58;;;;;;;;;1.00;1.00;;;;;13.39;50.77;98273.63;5068027;28;9647;-75
2023/10/28 04:20:27;;;;;;;;;10.60;8.00;;;;;13.37;50.22;98283.44;5069194;28;8850;-78
2023/10/28 04:22:57;;;;;;;;;0.00;0.00;;;;;13.29;50.70;98282.03;5069458;28;8946;-75
2023/10/28 04:25:27;;;;;;;;;1.40;1.00;;;;;13.41;51.71;98282.31;5068418;28;8962;-76
2023/10/28 04:27:55;;;;;;;;;1.00;1.00;;;;;13.35;50.56;98283.50;5067574;28;9615;-76
2023/10/28 04:30:26;;;;;;;;;0.40;0.40;;;;;13.39;49.70;98287.72;5069498;28;8862;-76
2023/10/28 04:32:54;;;;;;;;;8.00;7.60;;;;;13.41;49.37;98285.84;5069359;28;8846;-75
2023/10/28 04:35:24;;;;;;;;;1.00;1.00;;;;;13.45;50.10;98291.78;5068974;28;8839;-77
2023/10/28 04:37:57;;;;;;;;;0.00;0.00;;;;;13.51;49.02;98284.41;5068951;28;8858;-76
2023/10/28 04:40:26;;;;;;;;;0.00;0.00;;;;;13.45;49.38;98295.28;5033895;28;8858;-76
2023/10/28 04:42:54;;;;;;;;;0.00;0.00;;;;;13.48;48.90;98292.47;5052705;28;8892;-76
2023/10/28 04:45:22;;;;;;;;;0.00;0.00;;;;;13.45;48.24;98286.50;5013715;28;8849;-74
2023/10/28 04:47:52;;;;;;;;;0.00;0.00;;;;;13.45;48.04;98295.28;5060065;28;8967;-76
2023/10/28 04:50:22;;;;;;;;;0.00;0.00;;;;;13.45;48.37;98295.28;5068834;28;8955;-76
2023/10/28 04:52:51;;;;;;;;;0.00;0.00;;;;;13.44;48.87;98301.50;5067483;28;8846;-77
2023/10/28 04:55:21;;;;;;;;;1.00;0.00;;;;;13.49;49.17;98299.47;5068817;28;8892;-76
2023/10/28 04:57:51;;;;;;;;;0.00;0.00;;;;;13.45;48.36;98302.34;5057061;28;8849;-77
2023/10/28 05:00:20;;;;;;;;;0.00;0.00;;;;;13.52;47.83;98303.72;5032034;28;8853;-75
2023/10/28 05:02:48;;;;;;;;;1.00;1.00;;;;;13.51;47.85;98299.41;5070264;28;8878;-77
2023/10/28 05:05:19;;;;;;;;;0.00;0.00;;;;;13.44;47.60;98298.00;5069037;28;8854;-80
2023/10/28 05:07:47;;;;;;;;;1.00;1.00;;;;;13.50;47.46;98300.31;5068544;28;8842;-76
2023/10/28 05:10:17;;;;;;;;;1.80;0.00;;;;;13.65;47.37;98299.50;5000255;28;8882;-76
2023/10/28 05:12:45;;;;;;;;;0.00;0.00;;;;;13.52;48.00;98301.09;5031093;28;9651;-77
2023/10/28 05:15:14;;;;;;;;;0.40;0.40;;;;;13.54;48.71;98307.13;5068983;28;8896;-79
2023/10/28 05:17:44;;;;;;;;;1.00;1.00;;;;;13.52;49.47;98309.00;5033860;28;8885;-75
2023/10/28 05:20:13;;;;;;;;;0.00;0.00;;;;;13.51;49.91;98308.16;5069225;28;8947;-76
2023/10/28 05:22:43;;;;;;;;;0.00;0.00;;;;;13.60;50.14;98311.25;5069230;28;8859;-77
2023/10/28 05:25:12;;;;;;;;;0.00;0.00;;;;;13.64;50.71;98320.72;5033574;28;8850;-77
2023/10/28 05:27:41;;;;;;;;;1.00;0.40;;;;;13.69;50.83;98322.19;5065247;28;9042;-76
2023/10/28 05:30:12;;;;;;;;;0.00;0.00;;;;;13.73;50.14;98329.94;5068088;28;8842;-77
2023/10/28 05:32:41;;;;;;;;;0.00;0.00;;;;;13.64;49.65;98334.78;5068231;28;8866;-76
2023/10/28 05:35:11;;;;;;;;;1.60;0.00;;;;;13.70;49.72;98338.88;5068432;28;8854;-77
2023/10/28 05:37:40;;;;;;;;;0.00;0.00;;;;;13.76;49.17;98345.63;5067883;28;8907;-77
2023/10/28 05:40:13;;;;;;;;;0.20;0.20;;;;;13.90;49.38;98353.69;5070654;28;8839;-76
2023/10/28 05:42:42;;;;;;;;;0.60;0.60;;;;;13.92;48.66;98346.53;5053030;28;8876;-75
2023/10/28 05:45:13;;;;;;;;;0.00;0.00;;;;;13.83;47.96;98349.69;5048086;28;8829;-75
2023/10/28 05:47:42;;;;;;;;;0.00;0.00;;;;;13.95;47.99;98348.16;5062276;28;8870;-78
2023/10/28 05:50:11;;;;;;;;;1.00;0.00;;;;;14.04;47.69;98352.94;5033172;28;8843;-75
2023/10/28 05:52:40;;;;;;;;;0.00;0.00;;;;;13.95;47.31;98367.50;5068768;28;9607;-77
2023/10/28 05:55:12;;;;;;;;;0.00;0.00;;;;;14.06;47.18;98354.56;5070601;28;8847;-77
2023/10/28 05:57:43;;;;;;;;;3.00;2.40;;;;;14.07;47.24;98368.63;5067182;28;8858;-78
2023/10/28 06:00:14;;;;;;;;;0.00;0.00;;;;;14.18;47.70;98355.69;5051945;28;8853;-77
2023/10/28 06:02:42;;;;;;;;;0.20;0.20;;;;;14.22;47.67;98364.28;5051893;28;9622;-76
2023/10/28 06:05:12;;;;;;;;;0.20;0.20;;;;;14.37;46.78;98357.31;5050789;28;8849;-77
2023/10/28 06:07:47;;;;;;;;;0.00;0.00;;;;;14.33;47.02;98366.34;5033483;28;8853;-77
2023/10/28 06:10:17;;;;;;;;;0.80;0.80;;;;;14.33;47.01;98369.84;5063155;28;8858;-76
2023/10/28 06:12:46;;;;;;;;;1.00;1.00;;;;;14.52;46.30;98369.66;5070499;28;8927;-75
2023/10/28 06:15:15;;;;;;;;;0.80;0.80;;;;;14.65;46.19;98375.97;5053449;28;8865;-77
2023/10/28 06:17:48;;;;;;;;;0.80;0.80;;;;;14.56;46.13;98380.94;5061913;28;8854;-77
2023/10/28 06:20:17;;;;;;;;;0.00;0.00;;;;;14.54;45.61;98372.22;5071876;28;9401;-78
2023/10/28 06:22:46;;;;;;;;;0.00;0.00;;;;;14.60;45.41;98379.81;5036247;28;9513;-77
2023/10/28 06:25:17;;;;;;;;;1.00;1.00;;;;;14.69;45.16;98379.28;5071404;28;8850;-77
2023/10/28 06:27:45;;;;;;;;;0.00;0.00;;;;;14.71;45.32;98382.69;5071215;28;9731;-78
2023/10/28 06:30:15;;;;;;;;;1.00;1.00;;;;;14.75;45.84;98394.84;5070467;28;8842;-78
2023/10/28 06:32:44;;;;;;;;;0.00;0.00;;;;;14.82;44.57;98393.56;5036480;28;8866;-78
2023/10/28 06:35:16;;;;;;;;;0.40;0.40;;;;;14.92;44.50;98400.97;5071085;28;8838;-78
2023/10/28 06:37:46;;;;;;;;;0.00;0.00;;;;;14.87;44.39;98393.31;5070429;28;9015;-77
2023/10/28 06:40:17;;;;;;;;;1.20;0.00;;;;;14.88;44.66;98402.94;5071133;28;8831;-78
2023/10/28 06:42:46;;;;;;;;;0.80;0.80;;;;;15.07;43.85;98405.38;5052800;28;8951;-76
2023/10/28 06:45:15;;;;;;;;;1.00;1.00;;;;;15.15;43.60;98400.53;5070053;28;8850;-77
2023/10/28 06:47:43;;;;;;;;;0.00;0.00;;;;;15.21;43.29;98410.75;5073911;28;8972;-76
2023/10/28 06:50:13;;;;;;;;;0.80;0.80;;;;;15.36;43.06;98405.47;5073514;28;8993;-76
2023/10/28 06:52:42;;;;;;;;;1.00;1.00;;;;;15.45;43.17;98394.34;5071654;28;8854;-78
2023/10/28 06:55:12;;;;;;;;;0.00;0.00;;;;;15.51;42.55;98399.28;5071589;28;8990;-77
2023/10/28 06:57:43;;;;;;;;;0.00;0.00;;;;;15.58;43.08;98405.91;5071679;28;8854;-76
2023/10/28 07:00:13;;;;;;;;;1.40;0.80;;;;;15.67;43.46;98409.84;5069813;28;8858;-77
2023/10/28 07:02:42;;;;;;;;;0.00;0.00;;;;;15.67;42.65;98406.34;5069115;28;8838;-77
2023/10/28 07:05:14;;;;;;;;;0.00;0.00;;;;;15.70;42.07;98406.16;5069301;28;8878;-77
2023/10/28 07:07:44;;;;;;;;;2.20;0.20;;;;;15.70;42.56;98400.84;5070598;28;8941;-76
2023/10/28 07:10:14;;;;;;;;;0.00;0.00;;;;;15.69;42.83;98407.09;5070930;28;8939;-77
2023/10/28 07:12:45;;;;;;;;;0.00;0.00;;;;;15.77;42.74;98418.09;5074716;28;8870;-77
2023/10/28 07:15:16;;;;;;;;;2.00;1.00;;;;;15.91;42.74;98425.22;5070474;28;8866;-78
2023/10/28 07:17:44;;;;;;;;;0.00;0.00;;;;;15.90;42.49;98415.53;5034984;28;8958;-78
2023/10/28 07:20:15;;;;;;;;;0.00;0.00;;;;;15.96;41.80;98426.63;5070438;28;9591;-78
2023/10/28 07:22:44;;;;;;;;;1.00;0.00;;;;;16.07;42.43;98433.06;5069262;28;8983;-79
2023/10/28 07:25:14;;;;;;;;;1.00;0.40;;;;;16.12;42.13;98431.84;5073626;28;8884;-79
2023/10/28 07:27:44;;;;;;;;;0.80;0.80;;;;;16.28;41.56;98438.84;5070426;28;8842;-78
2023/10/28 07:30:14;;;;;;;;;1.40;1.00;;;;;16.36;41.15;98448.03;5070398;28;8831;-78
2023/10/28 07:32:42;;;;;;;;;1.00;1.00;;;;;16.37;41.60;98455.03;5070747;28;8850;-80
2023/10/28 07:35:11;;;;;;;;;0.00;0.00;;;;;16.55;40.83;98460.16;5048955;28;8843;-79
2023/10/28 07:37:40;;;;;;;;;0.00;0.00;;;;;16.59;41.18;98461.69;5050825;28;8870;-80
2023/10/28 07:40:11;;;;;;;;;1.00;1.00;;;;;16.90;40.46;98457.06;5032193;28;8865;-81
2023/10/28 07:42:41;;;;;;;;;0.00;0.00;;;;;16.79;40.22;98453.28;5036744;28;8854;-80
2023/10/28 07:45:13;;;;;;;;;1.00;1.00;;;;;16.86;40.64;98459.06;5047982;28;8890;-77
2023/10/28 07:47:41;;;;;;;;;0.00;0.00;;;;;16.91;40.15;98461.41;5048228;28;8855;-77
2023/10/28 07:50:11;;;;;;;;;0.40;0.40;;;;;16.98;40.51;98460.94;5030867;28;9039;-77
2023/10/28 07:52:39;;;;;;;;;0.80;0.80;;;;;17.16;40.56;98463.34;5047301;28;8870;-80
2023/10/28 07:55:09;;;;;;;;;0.80;0.80;;;;;17.30;39.83;98462.44;4998723;28;8855;-80
2023/10/28 07:57:38;;;;;;;;;2.20;2.20;;;;;17.27;40.42;98470.59;5046213;28;8842;-79
2023/10/28 08:00:11;;;;;;;;;1.20;1.20;;;;;17.37;40.37;98472.56;5030568;28;9608;-77
2023/10/28 08:02:46;;;;;;;;;1.60;0.60;;;;;17.68;41.31;98461.69;5030385;28;8967;-79
2023/10/28 08:05:16;;;;;;;;;1.00;1.00;;;;;17.82;41.52;98468.75;4983118;28;8893;-78
2023/10/28 08:07:47;;;;;;;;;2.00;2.00;;;;;17.94;41.83;98468.72;5034886;28;8877;-79
2023/10/28 08:10:22;;;;;;;;;0.60;0.60;;;;;18.02;41.88;98473.53;5068336;28;9611;-78
2023/10/28 08:12:52;;;;;;;;;0.60;0.60;;;;;18.17;40.50;98479.63;5032712;28;9626;-79
2023/10/28 08:15:21;;;;;;;;;3.60;3.60;;;;;18.13;41.20;98470.16;5014507;28;8857;-78
2023/10/28 08:17:52;;;;;;;;;8.00;6.20;;;;;18.17;40.59;98466.31;5049903;28;8906;-79
2023/10/28 08:20:21;;;;;;;;;1.80;1.80;;;;;17.62;40.88;98486.88;5043560;28;8841;-78
2023/10/28 08:22:50;;;;;;;;;3.00;3.00;;;;;17.52;41.20;98491.09;5049527;28;8952;-77
2023/10/28 08:25:22;;;;;;;;;1.80;1.60;;;;;17.08;42.07;98497.47;5049426;28;8860;-80
2023/10/28 08:27:52;;;;;;;;;3.00;3.00;;;;;17.47;42.19;98498.53;5036533;28;8854;-78
2023/10/28 08:30:21;;;;;;;;;2.20;2.20;;;;;17.33;42.31;98510.91;5070129;28;8874;-78
2023/10/28 08:32:51;;;;;;;;;2.20;2.20;;;;;17.22;42.74;98515.19;5069264;28;8861;-77
2023/10/28 08:35:20;;;;;;;;;2.20;2.20;;;;;17.52;42.36;98509.72;5069708;28;8870;-79
2023/10/28 08:37:49;;;;;;;;;3.00;3.00;;;;;17.49;42.68;98516.06;5069147;28;8993;-77
2023/10/28 08:40:18;;;;;;;;;7.00;7.00;;;;;17.60;42.83;98518.00;5033812;28;8862;-78
2023/10/28 08:42:47;;;;;;;;;7.80;7.80;;;;;17.61;43.61;98517.06;5032152;28;8941;-77
2023/10/28 08:45:19;;;;;;;;;4.00;4.00;;;;;17.75;42.82;98516.13;5054937;28;8868;-77
2023/10/28 08:47:49;;;;;;;;;3.60;2.80;;;;;17.56;43.44;98519.19;5068665;28;8861;-79
2023/10/28 08:50:24;;;;;;;;;3.20;3.20;;;;;17.58;42.95;98527.91;5067684;28;8827;-78
2023/10/28 08:52:57;;;;;;;;;3.60;2.80;;;;;17.80;42.66;98524.66;5069562;28;8877;-79
2023/10/28 08:55:27;;;;;;;;;10.80;10.60;;;;;17.75;43.16;98519.63;5067677;28;8846;-78
2023/10/28 08:57:55;;;;;;;;;3.40;3.40;;;;;17.45;43.81;98533.16;5069282;28;8951;-79
2023/10/28 09:00:27;;;;;;;;;4.60;4.20;;;;;17.68;43.21;98534.28;5068338;28;8845;-80
2023/10/28 09:02:58;;;;;;;;;6.40;6.40;;;;;17.77;44.04;98531.03;5088522;28;8873;-78
2023/10/28 09:05:29;;;;;;;;;6.00;3.80;;;;;18.03;43.28;98532.91;5089310;28;9552;-79
2023/10/28 09:07:58;;;;;;;;;4.00;4.00;;;;;17.96;43.29;98530.63;5037323;28;8846;-79
2023/10/28 09:10:28;;;;;;;;;6.00;5.40;;;;;18.22;44.01;98535.19;5057832;28;8881;-78
2023/10/28 09:12:58;;;;;;;;;9.40;9.40;;;;;18.29;42.81;98539.09;5092577;28;8888;-77
2023/10/28 09:15:27;;;;;;;;;5.80;5.80;;;;;18.53;42.52;98525.91;5083070;28;8860;-80
2023/10/28 09:17:56;;;;;;;;;7.20;5.60;;;;;18.60;42.35;98529.00;5071824;28;8826;-78
2023/10/28 09:20:25;;;;;;;;;3.00;3.00;;;;;18.54;39.27;98524.94;5055332;28;8967;-80
2023/10/28 09:22:55;;;;;;;;;3.00;3.00;;;;;18.53;39.31;98526.78;5088652;28;8866;-79
2023/10/28 09:25:24;;;;;;;;;4.80;3.40;;;;;18.52;37.59;98530.38;5065729;28;8879;-79
2023/10/28 09:27:54;;;;;;;;;6.60;6.60;;;;;18.74;38.32;98535.03;5062218;28;8865;-78
2023/10/28 09:30:22;;;;;;;;;3.00;3.00;;;;;18.78;38.42;98535.69;5082255;28;8860;-79
2023/10/28 09:32:54;;;;;;;;;4.40;4.00;;;;;18.99;38.18;98537.78;5068161;28;8871;-79
2023/10/28 09:35:25;;;;;;;;;4.00;4.00;;;;;18.73;37.08;98528.00;5066892;28;8870;-80
2023/10/28 09:37:56;;;;;;;;;3.60;3.60;;;;;19.02;38.05;98534.91;5068168;28;8881;-78
2023/10/28 09:40:27;;;;;;;;;5.80;5.60;;;;;19.16;37.60;98533.88;5067875;28;8838;-79
2023/10/28 09:42:55;;;;;;;;;4.00;4.00;;;;;19.33;37.44;98534.38;5066808;28;8988;-77
2023/10/28 09:45:25;;;;;;;;;3.00;3.00;;;;;19.52;36.66;98527.72;5063850;28;9554;-78
2023/10/28 09:47:57;;;;;;;;;3.60;3.60;;;;;19.68;36.76;98528.25;5066620;28;8982;-78
2023/10/28 09:50:30;;;;;;;;;4.40;4.00;;;;;19.71;36.04;98533.38;5068150;28;8878;-79
2023/10/28 09:53:00;;;;;;;;;3.80;3.00;;;;;19.58;34.46;98537.06;5067935;28;8846;-78
2023/10/28 09:55:36;;;;;;;;;5.80;5.80;;;;;19.88;35.15;98534.75;5066788;28;8878;-78
2023/10/28 09:58:10;;;;;;;;;7.00;7.00;;;;;19.07;33.69;98536.28;5065299;28;8963;-80
2023/10/28 10:00:42;;;;;;;;;3.40;3.00;;;;;19.10;33.86;98535.19;5062623;28;8859;-83
2023/10/28 10:03:26;;;;;;;;;5.20;4.80;;;;;19.60;34.38;98537.81;5065162;28;8864;-77
2023/10/28 10:05:56;;;;;;;;;4.60;4.60;;;;;19.58;33.72;98537.06;5049459;28;8879;-78
2023/10/28 10:08:27;;;;;;;;;3.40;3.40;;;;;19.66;34.48;98540.00;5065412;28;8979;-80
2023/10/28 10:10:59;;;;;;;;;4.00;4.00;;;;;19.54;34.57;98538.25;5065910;28;8990;-81
2023/10/28 10:13:27;;;;;;;;;8.20;6.40;;;;;19.13;34.34;98540.31;5066567;28;8937;-79
2023/10/28 10:16:03;;;;;;;;;5.60;5.60;;;;;19.40;35.29;98539.25;5056138;28;8881;-78
2023/10/28 10:18:34;;;;;;;;;6.00;5.00;;;;;19.45;35.50;98543.28;4995806;28;8850;-80
2023/10/28 10:21:09;;;;;;;;;4.20;3.00;;;;;19.61;36.32;98556.38;5044980;28;8870;-80
2023/10/28 10:23:44;;;;;;;;;4.00;3.60;;;;;19.63;35.96;98554.44;5028699;28;9004;-78
2023/10/28 10:26:23;;;;;;;;;4.60;4.20;;;;;19.51;35.70;98558.84;5064930;28;8872;-80
2023/10/28 10:28:54;;;;;;;;;3.60;3.60;;;;;19.70;35.39;98555.66;5065566;28;9695;-79
2023/10/28 10:31:24;;;;;;;;;4.40;3.00;;;;;19.61;34.92;98558.16;5066134;28;8884;-78
2023/10/28 10:34:01;;;;;;;;;5.60;5.40;;;;;19.56;35.47;98555.00;5067701;28;8872;-81
2023/10/28 10:36:30;;;;;;;;;4.40;3.40;;;;;19.41;35.74;98557.78;5066158;28;8889;-78
2023/10/28 10:39:18;;;;;;;;;4.00;4.00;;;;;19.39;35.25;98557.06;5067619;28;8869;-80
2023/10/28 10:41:49;;;;;;;;;5.00;5.00;;;;;19.56;36.50;98560.34;5067572;28;8870;-80
2023/10/28 10:44:26;;;;;;;;;3.60;3.60;;;;;19.79;35.36;98558.63;5072135;28;8891;-80
2023/10/28 10:46:59;;;;;;;;;9.60;9.60;;;;;19.86;36.57;98562.53;5068590;28;8905;-80
2023/10/28 10:49:30;;;;;;;;;6.00;5.40;;;;;19.97;34.68;98564.34;5069649;28;8834;-78
2023/10/28 10:52:00;;;;;;;;;5.00;5.00;;;;;20.02;35.61;98564.88;5071402;28;8865;-79
2023/10/28 10:54:32;;;;;;;;;10.20;10.20;;;;;20.10;35.28;98573.13;5072776;28;8994;-79
2023/10/28 10:57:01;;;;;;;;;8.80;8.00;;;;;20.22;35.74;98577.53;5071923;28;8923;-77
2023/10/28 10:59:31;;;;;;;;;9.60;9.60;;;;;20.28;35.63;98576.25;5072615;28;8850;-79
2023/10/28 11:02:01;;;;;;;;;6.00;6.00;;;;;20.15;34.54;98572.78;5050045;28;8884;-79
2023/10/28 11:04:31;;;;;;;;;5.00;5.00;;;;;20.41;35.40;98565.50;5018218;28;8861;-80
2023/10/28 11:07:02;;;;;;;;;7.60;7.00;;;;;20.42;35.56;98556.50;5051754;28;8885;-79
2023/10/28 11:09:34;;;;;;;;;6.00;6.00;;;;;20.43;35.74;98564.41;5056764;28;8826;-80
2023/10/28 11:12:04;;;;;;;;;6.40;5.60;;;;;20.38;35.86;98560.38;5071906;28;9605;-78
2023/10/28 11:14:33;;;;;;;;;9.40;8.40;;;;;20.04;35.76;98570.94;5071256;28;8850;-78
2023/10/28 11:17:02;;;;;;;;;7.80;7.00;;;;;20.32;36.88;98568.88;5068751;28;8901;-78
2023/10/28 11:19:31;;;;;;;;;6.80;5.40;;;;;20.41;36.68;98574.34;5070724;28;8850;-77
2023/10/28 11:22:00;;;;;;;;;6.80;6.20;;;;;19.90;36.78;98578.16;5086795;28;9642;-80
2023/10/28 11:24:37;;;;;;;;;4.80;4.40;;;;;20.19;37.58;98575.09;5069483;28;8822;-78
2023/10/28 11:27:06;;;;;;;;;7.00;7.00;;;;;20.17;36.90;98579.72;5020843;28;8878;-78
2023/10/28 11:29:37;;;;;;;;;11.40;11.40;;;;;20.35;38.31;98579.28;5070836;28;8865;-77
2023/10/28 11:32:07;;;;;;;;;10.00;10.00;;;;;20.30;37.75;98579.66;5069685;28;8897;-80
2023/10/28 11:34:40;;;;;;;;;7.60;7.60;;;;;19.99;39.19;98578.44;5070728;28;8835;-80
2023/10/28 11:37:09;;;;;;;;;10.20;8.60;;;;;20.27;37.76;98577.22;5070728;28;8854;-77
2023/10/28 11:39:41;;;;;;;;;11.60;11.00;;;;;20.36;38.03;98584.50;5051884;28;8889;-78
2023/10/28 11:42:12;;;;;;;;;10.20;8.60;;;;;20.43;37.30;98590.25;5053261;28;9010;-75
2023/10/28 11:44:42;;;;;;;;;8.60;8.40;;;;;20.35;38.71;98587.28;5074397;28;8847;-77
2023/10/28 11:47:11;;;;;;;;;7.60;7.60;;;;;20.41;38.03;98595.69;5073855;28;8850;-79
2023/10/28 11:49:40;;;;;;;;;4.00;4.00;;;;;20.40;39.27;98596.66;5068866;28;9574;-78
2023/10/28 11:52:11;;;;;;;;;5.00;5.00;;;;;20.56;38.26;98590.13;5049851;28;8908;-78
2023/10/28 11:54:42;;;;;;;;;4.80;4.00;;;;;20.34;37.49;98585.63;5001680;28;8892;-77